Disclaimer

Please do not use the information listed here in-flight or in-navigation, as they are not provided to us by the airports but are provided by volunteers, so they might be outdated.

Search


Regions


Airport information page

Radio informations:
Tower (TWR) - 118.5 MHz

Airport informations:
Latitude: 51° 28' 39.00" N
Longitude: 000° 27' 41.00" W
Elevation: 83 feet - 25 meters
Operating hours: 24 hour operations
Operating agency: Civil government, landing fees and diplomatic clearance may be required
Timezone: UTC 0(+1DT) - Last Sunday in March to last Sunday in October
Fuel: Jet A1, without icing nhibitor.

Runway information:
09R/27L - 12001 x 148 feet< - >3658 x 45 meters
09L/27R - 12799 x 164 feet< - >3901 x 50 meters

Recent METARs:
EGLL 181850Z AUTO 05006KT 9999 NCD 07/03 Q1026 NOSIG
EGLL 181920Z AUTO 05006KT 9999 NCD 07/03 Q1026
EGLL 181950Z AUTO 04005KT 010V080 9999 NCD 07/03 Q1026 NOSIG

Airport on the map: